sensor_id;sensor_type;location;lat;lon;timestamp;P1;durP1;ratioP1;P2;durP2;ratioP2
10339;SDS011;5215;48.676;9.022;2022-07-12T00:01:26;2.92;;;2.63;;
10339;SDS011;5215;48.676;9.022;2022-07-12T00:03:53;4.53;;;3.00;;
10339;SDS011;5215;48.676;9.022;2022-07-12T00:06:20;3.15;;;2.67;;
10339;SDS011;5215;48.676;9.022;2022-07-12T00:08:52;3.28;;;2.97;;
10339;SDS011;5215;48.676;9.022;2022-07-12T00:11:21;3.28;;;2.83;;
10339;SDS011;5215;48.676;9.022;2022-07-12T00:13:50;3.25;;;2.85;;
10339;SDS011;5215;48.676;9.022;2022-07-12T00:16:19;2.88;;;2.47;;
10339;SDS011;5215;48.676;9.022;2022-07-12T00:18:48;2.88;;;2.60;;
10339;SDS011;5215;48.676;9.022;2022-07-12T00:21:21;2.85;;;2.65;;
10339;SDS011;5215;48.676;9.022;2022-07-12T00:23:52;3.10;;;2.88;;
10339;SDS011;5215;48.676;9.022;2022-07-12T00:26:20;3.45;;;2.70;;
10339;SDS011;5215;48.676;9.022;2022-07-12T00:28:48;3.20;;;2.90;;
10339;SDS011;5215;48.676;9.022;2022-07-12T00:31:19;3.17;;;2.78;;
10339;SDS011;5215;48.676;9.022;2022-07-12T00:33:49;3.85;;;3.10;;
10339;SDS011;5215;48.676;9.022;2022-07-12T00:36:18;3.22;;;2.92;;
10339;SDS011;5215;48.676;9.022;2022-07-12T00:38:45;3.63;;;3.08;;
10339;SDS011;5215;48.676;9.022;2022-07-12T00:41:12;3.20;;;2.70;;
10339;SDS011;5215;48.676;9.022;2022-07-12T00:43:52;3.00;;;2.75;;
10339;SDS011;5215;48.676;9.022;2022-07-12T00:46:22;3.47;;;2.72;;
10339;SDS011;5215;48.676;9.022;2022-07-12T00:48:50;3.17;;;2.88;;
10339;SDS011;5215;48.676;9.022;2022-07-12T00:51:17;3.10;;;2.90;;
10339;SDS011;5215;48.676;9.022;2022-07-12T00:53:44;3.40;;;3.10;;
10339;SDS011;5215;48.676;9.022;2022-07-12T00:56:12;5.10;;;2.83;;
10339;SDS011;5215;48.676;9.022;2022-07-12T00:58:39;3.45;;;3.15;;
10339;SDS011;5215;48.676;9.022;2022-07-12T01:01:06;3.05;;;2.60;;
10339;SDS011;5215;48.676;9.022;2022-07-12T01:03:34;5.80;;;2.78;;
10339;SDS011;5215;48.676;9.022;2022-07-12T01:06:01;3.10;;;2.80;;
10339;SDS011;5215;48.676;9.022;2022-07-12T01:08:27;2.80;;;2.60;;
10339;SDS011;5215;48.676;9.022;2022-07-12T01:10:56;2.90;;;2.65;;
10339;SDS011;5215;48.676;9.022;2022-07-12T01:13:23;2.83;;;2.63;;
10339;SDS011;5215;48.676;9.022;2022-07-12T01:15:49;3.28;;;2.92;;
10339;SDS011;5215;48.676;9.022;2022-07-12T01:18:17;3.22;;;2.75;;
10339;SDS011;5215;48.676;9.022;2022-07-12T01:20:46;2.80;;;2.60;;
10339;SDS011;5215;48.676;9.022;2022-07-12T01:23:14;5.63;;;2.92;;
10339;SDS011;5215;48.676;9.022;2022-07-12T01:25:41;3.38;;;3.08;;
10339;SDS011;5215;48.676;9.022;2022-07-12T01:28:07;3.85;;;3.20;;
10339;SDS011;5215;48.676;9.022;2022-07-12T01:30:34;2.97;;;2.70;;
10339;SDS011;5215;48.676;9.022;2022-07-12T01:33:01;4.25;;;2.97;;
10339;SDS011;5215;48.676;9.022;2022-07-12T01:35:27;3.22;;;2.92;;
10339;SDS011;5215;48.676;9.022;2022-07-12T01:37:55;4.85;;;2.80;;
10339;SDS011;5215;48.676;9.022;2022-07-12T01:40:23;2.58;;;2.38;;
10339;SDS011;5215;48.676;9.022;2022-07-12T01:42:50;2.90;;;2.70;;
10339;SDS011;5215;48.676;9.022;2022-07-12T01:45:18;3.88;;;2.80;;
10339;SDS011;5215;48.676;9.022;2022-07-12T01:47:44;2.70;;;2.50;;
10339;SDS011;5215;48.676;9.022;2022-07-12T01:50:11;3.38;;;2.92;;
10339;SDS011;5215;48.676;9.022;2022-07-12T01:52:38;3.30;;;2.65;;
10339;SDS011;5215;48.676;9.022;2022-07-12T01:55:06;3.60;;;2.90;;
10339;SDS011;5215;48.676;9.022;2022-07-12T01:57:34;4.15;;;3.17;;
10339;SDS011;5215;48.676;9.022;2022-07-12T02:00:02;3.15;;;2.70;;
10339;SDS011;5215;48.676;9.022;2022-07-12T02:02:31;3.67;;;3.38;;
10339;SDS011;5215;48.676;9.022;2022-07-12T02:04:57;3.03;;;2.80;;
10339;SDS011;5215;48.676;9.022;2022-07-12T02:07:25;3.33;;;3.03;;
10339;SDS011;5215;48.676;9.022;2022-07-12T02:09:51;3.17;;;2.88;;
10339;SDS011;5215;48.676;9.022;2022-07-12T02:12:18;3.97;;;3.20;;
10339;SDS011;5215;48.676;9.022;2022-07-12T02:14:47;3.20;;;2.90;;
10339;SDS011;5215;48.676;9.022;2022-07-12T02:17:14;3.95;;;2.80;;
10339;SDS011;5215;48.676;9.022;2022-07-12T02:19:40;3.13;;;2.80;;
10339;SDS011;5215;48.676;9.022;2022-07-12T02:22:07;3.08;;;2.78;;
10339;SDS011;5215;48.676;9.022;2022-07-12T02:24:34;4.00;;;3.00;;
10339;SDS011;5215;48.676;9.022;2022-07-12T02:27:00;3.78;;;2.90;;
10339;SDS011;5215;48.676;9.022;2022-07-12T02:29:27;3.53;;;2.75;;
10339;SDS011;5215;48.676;9.022;2022-07-12T02:31:55;3.30;;;2.85;;
10339;SDS011;5215;48.676;9.022;2022-07-12T02:34:21;3.80;;;3.10;;
10339;SDS011;5215;48.676;9.022;2022-07-12T02:36:48;4.53;;;2.97;;
10339;SDS011;5215;48.676;9.022;2022-07-12T02:39:14;3.25;;;2.95;;
10339;SDS011;5215;48.676;9.022;2022-07-12T02:41:41;4.15;;;3.28;;
10339;SDS011;5215;48.676;9.022;2022-07-12T02:44:08;4.20;;;3.03;;
10339;SDS011;5215;48.676;9.022;2022-07-12T02:46:34;3.28;;;2.97;;
10339;SDS011;5215;48.676;9.022;2022-07-12T02:49:02;3.40;;;3.10;;
10339;SDS011;5215;48.676;9.022;2022-07-12T02:51:29;3.17;;;2.88;;
10339;SDS011;5215;48.676;9.022;2022-07-12T02:53:55;3.55;;;3.20;;
10339;SDS011;5215;48.676;9.022;2022-07-12T02:56:23;3.50;;;3.20;;
10339;SDS011;5215;48.676;9.022;2022-07-12T02:58:50;3.53;;;2.63;;
10339;SDS011;5215;48.676;9.022;2022-07-12T03:01:16;3.67;;;2.90;;
10339;SDS011;5215;48.676;9.022;2022-07-12T03:03:43;3.17;;;2.88;;
10339;SDS011;5215;48.676;9.022;2022-07-12T03:06:11;3.15;;;2.85;;
10339;SDS011;5215;48.676;9.022;2022-07-12T03:08:37;2.90;;;2.60;;
10339;SDS011;5215;48.676;9.022;2022-07-12T03:11:04;3.38;;;2.85;;
10339;SDS011;5215;48.676;9.022;2022-07-12T03:13:31;3.22;;;2.92;;
10339;SDS011;5215;48.676;9.022;2022-07-12T03:15:57;2.60;;;2.40;;
10339;SDS011;5215;48.676;9.022;2022-07-12T03:18:24;4.22;;;3.05;;
10339;SDS011;5215;48.676;9.022;2022-07-12T03:20:51;4.07;;;2.72;;
10339;SDS011;5215;48.676;9.022;2022-07-12T03:23:19;2.50;;;2.30;;
10339;SDS011;5215;48.676;9.022;2022-07-12T03:25:45;4.60;;;3.33;;
10339;SDS011;5215;48.676;9.022;2022-07-12T03:28:12;3.05;;;2.75;;
10339;SDS011;5215;48.676;9.022;2022-07-12T03:30:39;2.75;;;2.55;;
10339;SDS011;5215;48.676;9.022;2022-07-12T03:33:05;3.25;;;2.95;;
10339;SDS011;5215;48.676;9.022;2022-07-12T03:35:32;3.25;;;2.95;;
10339;SDS011;5215;48.676;9.022;2022-07-12T03:38:00;5.00;;;3.30;;
10339;SDS011;5215;48.676;9.022;2022-07-12T03:40:28;3.20;;;2.90;;
10339;SDS011;5215;48.676;9.022;2022-07-12T03:42:57;2.97;;;2.65;;
10339;SDS011;5215;48.676;9.022;2022-07-12T03:45:24;4.25;;;3.08;;
10339;SDS011;5215;48.676;9.022;2022-07-12T03:47:51;3.80;;;3.05;;
10339;SDS011;5215;48.676;9.022;2022-07-12T03:50:17;3.25;;;3.00;;
10339;SDS011;5215;48.676;9.022;2022-07-12T03:52:44;3.70;;;3.40;;
10339;SDS011;5215;48.676;9.022;2022-07-12T03:55:11;3.53;;;2.83;;
10339;SDS011;5215;48.676;9.022;2022-07-12T03:57:39;3.33;;;3.03;;
10339;SDS011;5215;48.676;9.022;2022-07-12T04:00:07;3.83;;;3.10;;
10339;SDS011;5215;48.676;9.022;2022-07-12T04:02:37;7.20;;;3.45;;
10339;SDS011;5215;48.676;9.022;2022-07-12T04:05:05;4.55;;;3.22;;
10339;SDS011;5215;48.676;9.022;2022-07-12T04:07:32;3.10;;;2.80;;
10339;SDS011;5215;48.676;9.022;2022-07-12T04:09:59;3.33;;;3.03;;
10339;SDS011;5215;48.676;9.022;2022-07-12T04:12:25;3.75;;;3.20;;
10339;SDS011;5215;48.676;9.022;2022-07-12T04:14:54;3.22;;;2.88;;
10339;SDS011;5215;48.676;9.022;2022-07-12T04:17:20;3.40;;;3.10;;
10339;SDS011;5215;48.676;9.022;2022-07-12T04:19:47;4.60;;;3.13;;
10339;SDS011;5215;48.676;9.022;2022-07-12T04:22:13;3.85;;;3.45;;
10339;SDS011;5215;48.676;9.022;2022-07-12T04:24:40;3.63;;;3.00;;
10339;SDS011;5215;48.676;9.022;2022-07-12T04:27:06;4.13;;;3.03;;
10339;SDS011;5215;48.676;9.022;2022-07-12T04:29:33;3.30;;;2.92;;
10339;SDS011;5215;48.676;9.022;2022-07-12T04:32:01;5.03;;;3.28;;
10339;SDS011;5215;48.676;9.022;2022-07-12T04:34:27;3.47;;;3.17;;
10339;SDS011;5215;48.676;9.022;2022-07-12T04:36:54;4.57;;;3.50;;
10339;SDS011;5215;48.676;9.022;2022-07-12T04:39:21;4.40;;;3.22;;
10339;SDS011;5215;48.676;9.022;2022-07-12T04:41:47;3.60;;;3.30;;
10339;SDS011;5215;48.676;9.022;2022-07-12T04:44:14;3.10;;;2.78;;
10339;SDS011;5215;48.676;9.022;2022-07-12T04:46:40;4.15;;;3.75;;
10339;SDS011;5215;48.676;9.022;2022-07-12T04:49:08;3.60;;;3.30;;
10339;SDS011;5215;48.676;9.022;2022-07-12T04:51:35;4.38;;;3.08;;
10339;SDS011;5215;48.676;9.022;2022-07-12T04:54:02;4.40;;;3.58;;
10339;SDS011;5215;48.676;9.022;2022-07-12T04:56:29;5.18;;;3.55;;
10339;SDS011;5215;48.676;9.022;2022-07-12T04:58:55;5.13;;;3.30;;
10339;SDS011;5215;48.676;9.022;2022-07-12T05:01:22;6.38;;;3.40;;
10339;SDS011;5215;48.676;9.022;2022-07-12T05:03:49;3.83;;;3.53;;
10339;SDS011;5215;48.676;9.022;2022-07-12T05:06:17;4.18;;;3.50;;
10339;SDS011;5215;48.676;9.022;2022-07-12T05:08:43;4.25;;;3.33;;
10339;SDS011;5215;48.676;9.022;2022-07-12T05:11:10;4.32;;;3.55;;
10339;SDS011;5215;48.676;9.022;2022-07-12T05:13:37;5.40;;;3.55;;
10339;SDS011;5215;48.676;9.022;2022-07-12T05:16:05;3.88;;;3.42;;
10339;SDS011;5215;48.676;9.022;2022-07-12T05:18:32;5.13;;;3.20;;
10339;SDS011;5215;48.676;9.022;2022-07-12T05:20:59;7.63;;;3.65;;
10339;SDS011;5215;48.676;9.022;2022-07-12T05:23:27;4.10;;;3.30;;
10339;SDS011;5215;48.676;9.022;2022-07-12T05:25:54;4.20;;;3.80;;
10339;SDS011;5215;48.676;9.022;2022-07-12T05:28:20;4.05;;;3.40;;
10339;SDS011;5215;48.676;9.022;2022-07-12T05:30:47;3.35;;;3.05;;
10339;SDS011;5215;48.676;9.022;2022-07-12T05:33:13;4.00;;;3.60;;
10339;SDS011;5215;48.676;9.022;2022-07-12T05:35:40;6.28;;;2.92;;
10339;SDS011;5215;48.676;9.022;2022-07-12T05:38:07;3.85;;;3.20;;
10339;SDS011;5215;48.676;9.022;2022-07-12T05:40:35;3.40;;;3.00;;
10339;SDS011;5215;48.676;9.022;2022-07-12T05:43:01;5.35;;;3.28;;
10339;SDS011;5215;48.676;9.022;2022-07-12T05:45:28;3.42;;;2.90;;
10339;SDS011;5215;48.676;9.022;2022-07-12T05:47:55;4.28;;;3.40;;
10339;SDS011;5215;48.676;9.022;2022-07-12T05:50:21;4.85;;;3.03;;
10339;SDS011;5215;48.676;9.022;2022-07-12T05:52:48;3.58;;;3.25;;
10339;SDS011;5215;48.676;9.022;2022-07-12T05:55:32;4.15;;;3.15;;
10339;SDS011;5215;48.676;9.022;2022-07-12T05:58:00;4.05;;;2.70;;
10339;SDS011;5215;48.676;9.022;2022-07-12T06:00:27;3.67;;;2.65;;
10339;SDS011;5215;48.676;9.022;2022-07-12T06:02:54;3.88;;;2.95;;
10339;SDS011;5215;48.676;9.022;2022-07-12T06:05:20;4.05;;;3.05;;
10339;SDS011;5215;48.676;9.022;2022-07-12T06:07:47;2.47;;;2.28;;
10339;SDS011;5215;48.676;9.022;2022-07-12T06:10:14;4.00;;;2.72;;
10339;SDS011;5215;48.676;9.022;2022-07-12T06:12:40;3.15;;;2.70;;
10339;SDS011;5215;48.676;9.022;2022-07-12T06:15:08;2.35;;;2.17;;
10339;SDS011;5215;48.676;9.022;2022-07-12T06:17:35;5.18;;;2.90;;
10339;SDS011;5215;48.676;9.022;2022-07-12T06:20:03;2.47;;;2.25;;
10339;SDS011;5215;48.676;9.022;2022-07-12T06:22:30;2.85;;;2.15;;
10339;SDS011;5215;48.676;9.022;2022-07-12T06:24:56;2.78;;;1.73;;
10339;SDS011;5215;48.676;9.022;2022-07-12T06:27:23;1.27;;;1.27;;
10339;SDS011;5215;48.676;9.022;2022-07-12T06:29:50;1.08;;;1.02;;
10339;SDS011;5215;48.676;9.022;2022-07-12T06:32:18;1.48;;;1.10;;
10339;SDS011;5215;48.676;9.022;2022-07-12T06:34:45;1.27;;;1.17;;
10339;SDS011;5215;48.676;9.022;2022-07-12T06:37:12;1.75;;;1.40;;
10339;SDS011;5215;48.676;9.022;2022-07-12T06:39:40;1.10;;;1.10;;
10339;SDS011;5215;48.676;9.022;2022-07-12T06:42:06;1.00;;;1.00;;
10339;SDS011;5215;48.676;9.022;2022-07-12T06:44:33;1.02;;;1.02;;
10339;SDS011;5215;48.676;9.022;2022-07-12T06:47:00;1.33;;;1.10;;
10339;SDS011;5215;48.676;9.022;2022-07-12T06:49:29;1.10;;;1.10;;
10339;SDS011;5215;48.676;9.022;2022-07-12T06:51:55;1.20;;;1.20;;
10339;SDS011;5215;48.676;9.022;2022-07-12T06:54:22;1.23;;;1.10;;
10339;SDS011;5215;48.676;9.022;2022-07-12T06:56:48;1.50;;;1.35;;
10339;SDS011;5215;48.676;9.022;2022-07-12T06:59:15;2.53;;;1.20;;
10339;SDS011;5215;48.676;9.022;2022-07-12T07:01:41;1.15;;;1.13;;
10339;SDS011;5215;48.676;9.022;2022-07-12T07:04:08;1.42;;;1.30;;
10339;SDS011;5215;48.676;9.022;2022-07-12T07:06:36;1.00;;;0.95;;
10339;SDS011;5215;48.676;9.022;2022-07-12T07:09:03;1.30;;;1.20;;
10339;SDS011;5215;48.676;9.022;2022-07-12T07:11:32;1.23;;;1.17;;
10339;SDS011;5215;48.676;9.022;2022-07-12T07:13:59;1.00;;;1.00;;
10339;SDS011;5215;48.676;9.022;2022-07-12T07:16:26;1.88;;;1.30;;
10339;SDS011;5215;48.676;9.022;2022-07-12T07:18:53;1.20;;;1.08;;
10339;SDS011;5215;48.676;9.022;2022-07-12T07:21:19;1.38;;;1.20;;
10339;SDS011;5215;48.676;9.022;2022-07-12T07:23:47;1.33;;;1.23;;
10339;SDS011;5215;48.676;9.022;2022-07-12T07:26:14;7.38;;;1.20;;
10339;SDS011;5215;48.676;9.022;2022-07-12T07:28:40;4.53;;;1.25;;
10339;SDS011;5215;48.676;9.022;2022-07-12T07:31:21;0.75;;;0.70;;
10339;SDS011;5215;48.676;9.022;2022-07-12T07:33:47;1.42;;;0.90;;
10339;SDS011;5215;48.676;9.022;2022-07-12T07:36:14;1.17;;;1.10;;
10339;SDS011;5215;48.676;9.022;2022-07-12T07:38:41;1.00;;;1.00;;
10339;SDS011;5215;48.676;9.022;2022-07-12T07:41:08;0.85;;;0.85;;
10339;SDS011;5215;48.676;9.022;2022-07-12T07:43:35;2.95;;;0.98;;
10339;SDS011;5215;48.676;9.022;2022-07-12T07:46:02;1.25;;;1.15;;
10339;SDS011;5215;48.676;9.022;2022-07-12T07:48:28;2.38;;;0.75;;
10339;SDS011;5215;48.676;9.022;2022-07-12T07:50:55;2.40;;;0.90;;
10339;SDS011;5215;48.676;9.022;2022-07-12T07:53:23;0.82;;;0.80;;
10339;SDS011;5215;48.676;9.022;2022-07-12T07:55:50;0.80;;;0.80;;
10339;SDS011;5215;48.676;9.022;2022-07-12T07:58:18;2.47;;;0.95;;
10339;SDS011;5215;48.676;9.022;2022-07-12T08:00:45;1.25;;;0.90;;
10339;SDS011;5215;48.676;9.022;2022-07-12T08:03:12;1.77;;;1.02;;
10339;SDS011;5215;48.676;9.022;2022-07-12T08:05:39;2.10;;;1.10;;
10339;SDS011;5215;48.676;9.022;2022-07-12T08:08:05;2.20;;;0.90;;
10339;SDS011;5215;48.676;9.022;2022-07-12T08:10:32;3.22;;;0.80;;
10339;SDS011;5215;48.676;9.022;2022-07-12T08:12:59;3.03;;;0.85;;
10339;SDS011;5215;48.676;9.022;2022-07-12T08:15:27;2.78;;;1.10;;
10339;SDS011;5215;48.676;9.022;2022-07-12T08:17:54;1.67;;;1.02;;
10339;SDS011;5215;48.676;9.022;2022-07-12T08:20:21;0.80;;;0.80;;
10339;SDS011;5215;48.676;9.022;2022-07-12T08:22:48;0.80;;;0.80;;
10339;SDS011;5215;48.676;9.022;2022-07-12T08:25:14;1.00;;;1.00;;
10339;SDS011;5215;48.676;9.022;2022-07-12T08:27:41;1.10;;;1.08;;
10339;SDS011;5215;48.676;9.022;2022-07-12T08:30:08;1.30;;;1.20;;
10339;SDS011;5215;48.676;9.022;2022-07-12T08:32:37;1.10;;;1.10;;
10339;SDS011;5215;48.676;9.022;2022-07-12T08:35:09;1.08;;;1.08;;
10339;SDS011;5215;48.676;9.022;2022-07-12T08:37:35;1.77;;;0.90;;
10339;SDS011;5215;48.676;9.022;2022-07-12T08:40:02;1.65;;;1.00;;
10339;SDS011;5215;48.676;9.022;2022-07-12T08:42:30;2.90;;;1.10;;
10339;SDS011;5215;48.676;9.022;2022-07-12T08:44:57;1.35;;;1.05;;
10339;SDS011;5215;48.676;9.022;2022-07-12T08:47:24;2.20;;;1.20;;
10339;SDS011;5215;48.676;9.022;2022-07-12T08:52:42;1.10;;;1.00;;
10339;SDS011;5215;48.676;9.022;2022-07-12T08:55:20;0.90;;;0.90;;
10339;SDS011;5215;48.676;9.022;2022-07-12T08:57:48;1.75;;;0.85;;
10339;SDS011;5215;48.676;9.022;2022-07-12T09:00:16;1.20;;;0.90;;
10339;SDS011;5215;48.676;9.022;2022-07-12T09:02:43;1.38;;;1.17;;
10339;SDS011;5215;48.676;9.022;2022-07-12T09:05:13;1.58;;;1.20;;
10339;SDS011;5215;48.676;9.022;2022-07-12T09:07:40;3.75;;;1.00;;
10339;SDS011;5215;48.676;9.022;2022-07-12T09:10:09;1.10;;;1.10;;
10339;SDS011;5215;48.676;9.022;2022-07-12T09:12:36;1.10;;;1.10;;
10339;SDS011;5215;48.676;9.022;2022-07-12T09:15:13;1.65;;;1.20;;
10339;SDS011;5215;48.676;9.022;2022-07-12T09:17:45;1.30;;;1.20;;
10339;SDS011;5215;48.676;9.022;2022-07-12T09:20:21;2.35;;;1.38;;
10339;SDS011;5215;48.676;9.022;2022-07-12T09:22:53;1.00;;;1.00;;
10339;SDS011;5215;48.676;9.022;2022-07-12T09:25:21;1.17;;;1.10;;
10339;SDS011;5215;48.676;9.022;2022-07-12T09:27:50;4.07;;;1.23;;
10339;SDS011;5215;48.676;9.022;2022-07-12T09:30:18;1.10;;;1.10;;
10339;SDS011;5215;48.676;9.022;2022-07-12T09:32:52;1.38;;;1.27;;
10339;SDS011;5215;48.676;9.022;2022-07-12T09:35:38;1.10;;;1.00;;
10339;SDS011;5215;48.676;9.022;2022-07-12T09:38:23;2.15;;;1.13;;
10339;SDS011;5215;48.676;9.022;2022-07-12T09:40:50;2.88;;;1.48;;
10339;SDS011;5215;48.676;9.022;2022-07-12T09:43:17;1.13;;;1.10;;
10339;SDS011;5215;48.676;9.022;2022-07-12T09:45:46;1.30;;;1.20;;
10339;SDS011;5215;48.676;9.022;2022-07-12T09:48:13;5.32;;;1.45;;
10339;SDS011;5215;48.676;9.022;2022-07-12T09:50:43;1.33;;;1.20;;
10339;SDS011;5215;48.676;9.022;2022-07-12T09:53:14;2.00;;;1.80;;
10339;SDS011;5215;48.676;9.022;2022-07-12T09:55:48;1.60;;;1.27;;
10339;SDS011;5215;48.676;9.022;2022-07-12T09:58:17;1.42;;;1.33;;
10339;SDS011;5215;48.676;9.022;2022-07-12T10:00:49;1.30;;;1.20;;
10339;SDS011;5215;48.676;9.022;2022-07-12T10:03:18;1.70;;;1.20;;
10339;SDS011;5215;48.676;9.022;2022-07-12T10:05:48;1.63;;;1.00;;
10339;SDS011;5215;48.676;9.022;2022-07-12T10:08:16;3.63;;;1.70;;
10339;SDS011;5215;48.676;9.022;2022-07-12T10:10:45;1.25;;;1.15;;
10339;SDS011;5215;48.676;9.022;2022-07-12T10:13:12;1.48;;;1.38;;
10339;SDS011;5215;48.676;9.022;2022-07-12T10:15:39;1.17;;;1.17;;
10339;SDS011;5215;48.676;9.022;2022-07-12T10:18:08;1.50;;;1.20;;
10339;SDS011;5215;48.676;9.022;2022-07-12T10:20:41;2.38;;;1.27;;
10339;SDS011;5215;48.676;9.022;2022-07-12T10:23:29;1.77;;;1.23;;
10339;SDS011;5215;48.676;9.022;2022-07-12T10:25:59;1.23;;;1.13;;
10339;SDS011;5215;48.676;9.022;2022-07-12T10:31:20;2.85;;;1.00;;
10339;SDS011;5215;48.676;9.022;2022-07-12T10:33:59;1.70;;;1.30;;
10339;SDS011;5215;48.676;9.022;2022-07-12T10:45:39;1.92;;;1.10;;
10339;SDS011;5215;48.676;9.022;2022-07-12T10:48:07;0.85;;;0.85;;
10339;SDS011;5215;48.676;9.022;2022-07-12T10:53:39;0.80;;;0.80;;
10339;SDS011;5215;48.676;9.022;2022-07-12T10:56:12;0.80;;;0.80;;
10339;SDS011;5215;48.676;9.022;2022-07-12T10:58:41;2.15;;;0.80;;
10339;SDS011;5215;48.676;9.022;2022-07-12T11:01:09;1.52;;;0.88;;
10339;SDS011;5215;48.676;9.022;2022-07-12T11:03:38;1.33;;;0.63;;
10339;SDS011;5215;48.676;9.022;2022-07-12T11:06:06;1.80;;;0.80;;
10339;SDS011;5215;48.676;9.022;2022-07-12T11:08:48;0.60;;;0.60;;
10339;SDS011;5215;48.676;9.022;2022-07-12T11:11:24;0.68;;;0.68;;
10339;SDS011;5215;48.676;9.022;2022-07-12T11:13:52;0.75;;;0.70;;
10339;SDS011;5215;48.676;9.022;2022-07-12T11:16:20;0.80;;;0.80;;
10339;SDS011;5215;48.676;9.022;2022-07-12T11:18:47;1.63;;;0.73;;
10339;SDS011;5215;48.676;9.022;2022-07-12T11:21:15;0.80;;;0.80;;
10339;SDS011;5215;48.676;9.022;2022-07-12T11:23:41;1.02;;;0.63;;
10339;SDS011;5215;48.676;9.022;2022-07-12T11:26:09;0.60;;;0.60;;
10339;SDS011;5215;48.676;9.022;2022-07-12T11:28:40;1.10;;;0.60;;
10339;SDS011;5215;48.676;9.022;2022-07-12T11:31:09;1.33;;;0.52;;
10339;SDS011;5215;48.676;9.022;2022-07-12T11:33:38;0.50;;;0.50;;
10339;SDS011;5215;48.676;9.022;2022-07-12T11:36:07;1.73;;;0.60;;
10339;SDS011;5215;48.676;9.022;2022-07-12T11:38:42;0.50;;;0.50;;
10339;SDS011;5215;48.676;9.022;2022-07-12T11:41:10;1.15;;;0.60;;
10339;SDS011;5215;48.676;9.022;2022-07-12T11:43:39;0.85;;;0.70;;
10339;SDS011;5215;48.676;9.022;2022-07-12T11:46:06;0.65;;;0.60;;
10339;SDS011;5215;48.676;9.022;2022-07-12T11:48:34;1.38;;;0.60;;
10339;SDS011;5215;48.676;9.022;2022-07-12T11:51:02;1.75;;;0.57;;
10339;SDS011;5215;48.676;9.022;2022-07-12T11:53:30;1.58;;;0.60;;
10339;SDS011;5215;48.676;9.022;2022-07-12T11:55:59;0.55;;;0.55;;
10339;SDS011;5215;48.676;9.022;2022-07-12T11:58:27;0.50;;;0.50;;
10339;SDS011;5215;48.676;9.022;2022-07-12T12:01:04;0.57;;;0.57;;
10339;SDS011;5215;48.676;9.022;2022-07-12T12:03:41;1.48;;;0.88;;
10339;SDS011;5215;48.676;9.022;2022-07-12T12:06:10;1.65;;;0.68;;
10339;SDS011;5215;48.676;9.022;2022-07-12T12:08:41;0.50;;;0.50;;
10339;SDS011;5215;48.676;9.022;2022-07-12T12:11:13;3.08;;;0.60;;
10339;SDS011;5215;48.676;9.022;2022-07-12T12:13:40;1.65;;;0.70;;
10339;SDS011;5215;48.676;9.022;2022-07-12T12:16:09;0.88;;;0.60;;
10339;SDS011;5215;48.676;9.022;2022-07-12T12:18:37;0.57;;;0.57;;
10339;SDS011;5215;48.676;9.022;2022-07-12T12:21:10;0.50;;;0.50;;
10339;SDS011;5215;48.676;9.022;2022-07-12T12:23:39;0.52;;;0.50;;
10339;SDS011;5215;48.676;9.022;2022-07-12T12:26:08;3.83;;;0.80;;
10339;SDS011;5215;48.676;9.022;2022-07-12T12:28:45;2.88;;;0.70;;
10339;SDS011;5215;48.676;9.022;2022-07-12T12:31:15;2.13;;;0.50;;
10339;SDS011;5215;48.676;9.022;2022-07-12T12:33:42;1.52;;;0.80;;
10339;SDS011;5215;48.676;9.022;2022-07-12T12:36:13;1.90;;;0.70;;
10339;SDS011;5215;48.676;9.022;2022-07-12T12:38:42;0.80;;;0.80;;
10339;SDS011;5215;48.676;9.022;2022-07-12T12:41:09;1.17;;;0.38;;
10339;SDS011;5215;48.676;9.022;2022-07-12T12:43:36;0.50;;;0.50;;
10339;SDS011;5215;48.676;9.022;2022-07-12T12:46:04;2.35;;;0.70;;
10339;SDS011;5215;48.676;9.022;2022-07-12T12:48:33;0.50;;;0.50;;
10339;SDS011;5215;48.676;9.022;2022-07-12T12:51:03;1.00;;;0.50;;
10339;SDS011;5215;48.676;9.022;2022-07-12T12:53:31;0.93;;;0.50;;
10339;SDS011;5215;48.676;9.022;2022-07-12T12:55:59;2.22;;;0.80;;
10339;SDS011;5215;48.676;9.022;2022-07-12T12:58:26;2.40;;;0.50;;
10339;SDS011;5215;48.676;9.022;2022-07-12T13:00:54;2.15;;;0.60;;
10339;SDS011;5215;48.676;9.022;2022-07-12T13:03:22;0.63;;;0.63;;
10339;SDS011;5215;48.676;9.022;2022-07-12T13:05:52;0.60;;;0.52;;
10339;SDS011;5215;48.676;9.022;2022-07-12T13:08:19;0.50;;;0.50;;
10339;SDS011;5215;48.676;9.022;2022-07-12T13:10:47;0.40;;;0.40;;
10339;SDS011;5215;48.676;9.022;2022-07-12T13:13:37;0.50;;;0.50;;
10339;SDS011;5215;48.676;9.022;2022-07-12T13:16:05;0.40;;;0.40;;
10339;SDS011;5215;48.676;9.022;2022-07-12T13:18:33;2.25;;;0.40;;
10339;SDS011;5215;48.676;9.022;2022-07-12T13:21:02;3.58;;;0.43;;
10339;SDS011;5215;48.676;9.022;2022-07-12T13:23:29;0.60;;;0.50;;
10339;SDS011;5215;48.676;9.022;2022-07-12T13:25:55;0.50;;;0.50;;
10339;SDS011;5215;48.676;9.022;2022-07-12T13:28:22;0.65;;;0.50;;
10339;SDS011;5215;48.676;9.022;2022-07-12T13:30:48;1.35;;;0.50;;
10339;SDS011;5215;48.676;9.022;2022-07-12T13:33:17;2.88;;;0.55;;
10339;SDS011;5215;48.676;9.022;2022-07-12T13:35:44;0.50;;;0.50;;
10339;SDS011;5215;48.676;9.022;2022-07-12T13:38:12;0.60;;;0.60;;
10339;SDS011;5215;48.676;9.022;2022-07-12T13:40:38;2.67;;;0.70;;
10339;SDS011;5215;48.676;9.022;2022-07-12T13:43:05;0.55;;;0.55;;
10339;SDS011;5215;48.676;9.022;2022-07-12T13:45:32;0.40;;;0.40;;
10339;SDS011;5215;48.676;9.022;2022-07-12T13:47:59;1.20;;;0.63;;
10339;SDS011;5215;48.676;9.022;2022-07-12T13:50:27;0.40;;;0.40;;
10339;SDS011;5215;48.676;9.022;2022-07-12T13:52:54;0.40;;;0.40;;
10339;SDS011;5215;48.676;9.022;2022-07-12T13:55:22;0.60;;;0.55;;
10339;SDS011;5215;48.676;9.022;2022-07-12T13:57:48;0.63;;;0.57;;
10339;SDS011;5215;48.676;9.022;2022-07-12T14:00:15;0.63;;;0.50;;
10339;SDS011;5215;48.676;9.022;2022-07-12T14:02:43;0.45;;;0.45;;
10339;SDS011;5215;48.676;9.022;2022-07-12T14:05:11;1.50;;;0.55;;
10339;SDS011;5215;48.676;9.022;2022-07-12T14:07:39;0.60;;;0.43;;
10339;SDS011;5215;48.676;9.022;2022-07-12T14:10:07;0.50;;;0.50;;
10339;SDS011;5215;48.676;9.022;2022-07-12T14:12:36;1.00;;;0.50;;
10339;SDS011;5215;48.676;9.022;2022-07-12T14:15:03;0.73;;;0.70;;
10339;SDS011;5215;48.676;9.022;2022-07-12T14:18:01;0.43;;;0.43;;
10339;SDS011;5215;48.676;9.022;2022-07-12T14:20:29;0.85;;;0.50;;
10339;SDS011;5215;48.676;9.022;2022-07-12T14:22:57;0.75;;;0.50;;
10339;SDS011;5215;48.676;9.022;2022-07-12T14:25:23;4.28;;;0.52;;
10339;SDS011;5215;48.676;9.022;2022-07-12T14:27:51;2.67;;;0.60;;
10339;SDS011;5215;48.676;9.022;2022-07-12T14:30:18;0.43;;;0.43;;
10339;SDS011;5215;48.676;9.022;2022-07-12T14:32:45;0.30;;;0.30;;
10339;SDS011;5215;48.676;9.022;2022-07-12T14:35:12;0.38;;;0.38;;
10339;SDS011;5215;48.676;9.022;2022-07-12T14:37:39;0.50;;;0.50;;
10339;SDS011;5215;48.676;9.022;2022-07-12T14:40:06;1.13;;;0.55;;
10339;SDS011;5215;48.676;9.022;2022-07-12T14:42:33;1.55;;;0.40;;
10339;SDS011;5215;48.676;9.022;2022-07-12T14:45:01;0.40;;;0.40;;
10339;SDS011;5215;48.676;9.022;2022-07-12T14:47:28;0.50;;;0.50;;
10339;SDS011;5215;48.676;9.022;2022-07-12T14:49:55;0.65;;;0.50;;
10339;SDS011;5215;48.676;9.022;2022-07-12T14:52:22;0.40;;;0.40;;
10339;SDS011;5215;48.676;9.022;2022-07-12T14:54:49;0.40;;;0.40;;
10339;SDS011;5215;48.676;9.022;2022-07-12T14:57:16;0.50;;;0.50;;
10339;SDS011;5215;48.676;9.022;2022-07-12T14:59:42;0.50;;;0.50;;
10339;SDS011;5215;48.676;9.022;2022-07-12T15:02:10;0.82;;;0.50;;
10339;SDS011;5215;48.676;9.022;2022-07-12T15:04:37;0.52;;;0.52;;
10339;SDS011;5215;48.676;9.022;2022-07-12T15:07:04;0.45;;;0.30;;
10339;SDS011;5215;48.676;9.022;2022-07-12T15:09:30;0.40;;;0.40;;
10339;SDS011;5215;48.676;9.022;2022-07-12T15:11:57;0.40;;;0.40;;
10339;SDS011;5215;48.676;9.022;2022-07-12T15:14:24;0.45;;;0.40;;
10339;SDS011;5215;48.676;9.022;2022-07-12T15:16:50;0.77;;;0.40;;
10339;SDS011;5215;48.676;9.022;2022-07-12T15:19:18;0.40;;;0.40;;
10339;SDS011;5215;48.676;9.022;2022-07-12T15:21:45;0.30;;;0.30;;
10339;SDS011;5215;48.676;9.022;2022-07-12T15:24:12;0.93;;;0.40;;